Time;durP1;ratioP1;P1;durP2;ratioP2;P2;SDS_P1;SDS_P2;PMS_P1;PMS_P2;Temp;Humidity;BMP_temperature;BMP_pressure;BME280_temperature;BME280_humidity;BME280_pressure;Samples;Min_cycle;Max_cycle;Signal;HPM_P1;HPM_P2
2021/06/22 00:00:38;;;;;;;13.58;2.45;;;;;;;23.27;100.00;100601.91;1733651;82;21860;-78
2021/06/22 00:03:04;;;;;;;13.90;1.80;;;;;;;23.27;100.00;100599.73;1733600;82;20984;-83
2021/06/22 00:05:32;;;;;;;28.23;2.83;;;;;;;23.25;100.00;100596.53;1733671;82;21035;-78
2021/06/22 00:07:59;;;;;;;21.35;2.80;;;;;;;23.21;100.00;100599.75;1733413;82;21511;-79
2021/06/22 00:10:29;;;;;;;10.85;1.80;;;;;;;23.17;100.00;100597.44;1733588;82;21052;-78
2021/06/22 00:12:56;;;;;;;20.88;2.25;;;;;;;23.15;100.00;100607.42;1733827;82;21093;-76
2021/06/22 00:15:26;;;;;;;8.68;1.90;;;;;;;23.17;100.00;100609.81;1733685;82;21016;-78
2021/06/22 00:17:53;;;;;;;15.08;2.27;;;;;;;23.13;100.00;100619.33;1733342;82;21067;-78
2021/06/22 00:20:21;;;;;;;20.90;2.20;;;;;;;23.09;100.00;100615.10;1733740;82;21091;-78
2021/06/22 00:22:49;;;;;;;20.35;2.30;;;;;;;23.05;100.00;100615.54;1733621;82;20980;-79
2021/06/22 00:25:17;;;;;;;15.85;2.02;;;;;;;23.04;100.00;100615.91;1733860;82;21075;-78
2021/06/22 00:27:43;;;;;;;13.78;1.77;;;;;;;23.02;100.00;100615.44;1733846;82;21107;-78
2021/06/22 00:30:12;;;;;;;16.12;2.20;;;;;;;23.00;100.00;100611.67;1733881;82;20996;-78
2021/06/22 00:32:38;;;;;;;12.68;2.33;;;;;;;22.99;100.00;100614.75;1733146;82;20997;-78
2021/06/22 00:35:07;;;;;;;11.18;2.45;;;;;;;22.96;100.00;100618.98;1733527;82;21035;-75
2021/06/22 00:37:33;;;;;;;27.70;2.45;;;;;;;22.96;100.00;100626.43;1733800;82;21488;-78
2021/06/22 00:39:59;;;;;;;13.40;2.30;;;;;;;22.93;100.00;100622.96;1733797;82;20960;-76
2021/06/22 00:42:25;;;;;;;17.45;2.40;;;;;;;22.88;100.00;100627.55;1733888;82;21027;-78
2021/06/22 00:44:58;;;;;;;30.37;2.62;;;;;;;22.87;100.00;100625.12;1733961;82;21526;-78
2021/06/22 00:47:26;;;;;;;17.87;2.87;;;;;;;22.86;100.00;100631.20;1733857;82;21044;-78
2021/06/22 00:49:54;;;;;;;14.65;2.98;;;;;;;22.84;100.00;100636.23;1732982;82;21635;-79
2021/06/22 00:52:25;;;;;;;14.98;3.00;;;;;;;22.81;100.00;100638.87;1733697;82;21545;-79
2021/06/22 00:54:52;;;;;;;19.10;2.50;;;;;;;22.79;100.00;100640.56;1733838;82;21472;-79
2021/06/22 00:57:19;;;;;;;15.08;2.37;;;;;;;22.80;100.00;100644.14;1733678;82;21492;-79
2021/06/22 00:59:46;;;;;;;20.20;3.15;;;;;;;22.79;100.00;100643.89;1733274;82;21040;-79
2021/06/22 01:02:12;;;;;;;23.50;2.83;;;;;;;22.77;100.00;100637.95;1733853;82;21069;-79
2021/06/22 01:04:38;;;;;;;20.62;2.33;;;;;;;22.73;100.00;100641.14;1733857;82;21696;-76
2021/06/22 01:07:07;;;;;;;16.85;2.35;;;;;;;22.67;100.00;100647.42;1733837;82;22136;-77
2021/06/22 01:09:33;;;;;;;24.50;2.80;;;;;;;22.63;100.00;100640.44;1734070;82;21472;-79
2021/06/22 01:12:00;;;;;;;17.17;2.47;;;;;;;22.61;100.00;100639.16;1733256;82;21117;-76
2021/06/22 01:14:28;;;;;;;22.60;2.20;;;;;;;22.57;100.00;100641.80;1733818;82;21071;-78
2021/06/22 01:16:55;;;;;;;18.50;3.22;;;;;;;22.54;100.00;100639.73;1733626;82;21047;-79
2021/06/22 01:19:21;;;;;;;22.40;2.80;;;;;;;22.51;100.00;100640.41;1733772;82;21024;-79
2021/06/22 01:21:48;;;;;;;19.42;3.10;;;;;;;22.49;100.00;100639.14;1734059;82;20904;-78
2021/06/22 01:24:18;;;;;;;20.00;2.60;;;;;;;22.46;100.00;100637.88;1712969;82;21025;-83
2021/06/22 01:26:49;;;;;;;24.25;2.60;;;;;;;22.43;100.00;100640.72;1710805;83;21079;-79
2021/06/22 01:29:16;;;;;;;29.67;3.40;;;;;;;22.42;100.00;100636.95;1712578;83;21514;-77
2021/06/22 01:31:42;;;;;;;13.95;2.67;;;;;;;;;;1713244;83;21619;-79
2021/06/22 01:34:09;;;;;;;24.85;3.47;;;;;;;22.42;100.00;100630.89;1734578;82;21004;-79
2021/06/22 01:36:38;;;;;;;34.67;4.05;;;;;;;22.45;100.00;100626.09;1713313;83;21019;-78
2021/06/22 01:39:08;;;;;;;20.57;3.25;;;;;;;22.50;100.00;100618.22;1700964;83;21171;-80
2021/06/22 01:41:34;;;;;;;24.18;3.22;;;;;;;22.53;100.00;100616.16;1724866;83;21117;-82
2021/06/22 01:44:00;;;;;;;29.60;3.30;;;;;;;22.52;100.00;100606.87;1724978;83;20994;-80
2021/06/22 01:46:26;;;;;;;26.42;3.72;;;;;;;22.50;100.00;100617.39;1724804;83;20848;-79
2021/06/22 01:48:52;;;;;;;30.15;3.67;;;;;;;22.47;100.00;100616.13;1724929;83;21695;-79
2021/06/22 01:51:18;;;;;;;34.03;4.10;;;;;;;22.46;100.00;100621.39;1724709;83;21129;-79
2021/06/22 01:53:55;;;;;;;29.95;4.80;;;;;;;22.47;100.00;100624.36;1724700;83;21118;-81
2021/06/22 01:56:24;;;;;;;29.05;3.58;;;;;;;22.47;100.00;100622.98;1623322;88;21121;-79
2021/06/22 01:58:50;;;;;;;32.20;3.95;;;;;;;22.48;100.00;100615.00;1582164;88;21024;-79
2021/06/22 02:01:16;;;;;;;32.80;4.33;;;;;;;22.50;100.00;100614.09;1614682;88;21071;-76
2021/06/22 02:03:42;;;;;;;31.70;4.00;;;;;;;22.52;100.00;100602.75;1614665;88;22002;-79
2021/06/22 02:06:09;;;;;;;26.30;4.28;;;;;;;22.54;100.00;100609.52;1614277;88;20979;-79
2021/06/22 02:08:35;;;;;;;35.60;4.67;;;;;;;22.55;100.00;100609.73;1614601;88;21047;-77
2021/06/22 02:11:02;;;;;;;21.35;3.92;;;;;;;22.58;100.00;100604.14;1614545;88;21661;-76
2021/06/22 02:13:29;;;;;;;36.05;4.62;;;;;;;22.61;100.00;100606.20;1593129;88;21150;-78
2021/06/22 02:15:56;;;;;;;41.40;4.72;;;;;;;22.65;100.00;100605.77;1614391;88;21223;-79
2021/06/22 02:18:22;;;;;;;37.45;5.08;;;;;;;22.67;100.00;100613.08;1614347;87;21047;-79
2021/06/22 02:20:48;;;;;;;49.80;5.92;;;;;;;22.72;100.00;100613.44;1614502;88;21107;-78
2021/06/22 02:23:14;;;;;;;40.78;5.22;;;;;;;22.78;100.00;100620.31;1619543;88;21035;-82
2021/06/22 02:25:41;;;;;;;43.83;5.05;;;;;;;22.83;100.00;100623.64;1628904;87;20976;-79
2021/06/22 02:28:14;;;;;;;53.98;4.40;;;;;;;22.86;100.00;100621.59;1629003;88;21158;-79
2021/06/22 02:30:41;;;;;;;35.35;4.45;;;;;;;22.92;100.00;100624.91;1628319;87;21063;-79
2021/06/22 02:33:11;;;;;;;52.85;4.60;;;;;;;22.98;100.00;100618.66;1628374;88;21113;-77
2021/06/22 02:35:36;;;;;;;43.50;4.87;;;;;;;23.03;100.00;100619.77;1629823;87;21240;-78
2021/06/22 02:38:03;;;;;;;34.75;5.10;;;;;;;23.10;100.00;100626.31;1668959;85;21037;-80
2021/06/22 02:40:29;;;;;;;38.83;4.83;;;;;;;23.17;100.00;100627.69;1669704;85;21075;-80
2021/06/22 02:42:56;;;;;;;38.20;4.97;;;;;;;23.22;100.00;100625.52;1669887;85;21050;-80
2021/06/22 02:45:22;;;;;;;58.98;5.22;;;;;;;23.24;100.00;100627.94;1670059;85;21082;-79
2021/06/22 02:47:49;;;;;;;46.08;5.70;;;;;;;23.25;99.97;100620.70;1669959;85;21050;-79
2021/06/22 02:50:17;;;;;;;51.68;5.87;;;;;;;23.25;99.33;100620.70;1669893;85;21010;-80
2021/06/22 02:52:42;;;;;;;43.48;5.92;;;;;;;23.24;98.93;100619.69;1725263;78;21098;-81
2021/06/22 02:55:18;;;;;;;49.42;5.40;;;;;;;23.24;99.06;100626.56;1814643;78;21676;-78
2021/06/22 02:57:38;;;;;;;56.80;5.85;;;;;;;23.23;98.36;100628.48;1810794;79;21008;-79
2021/06/22 03:00:07;;;;;;;48.78;5.10;;;;;;;23.21;98.91;100628.05;1814430;79;20995;-82
2021/06/22 03:02:32;;;;;;;51.33;5.62;;;;;;;23.21;98.75;100636.30;1814916;78;21052;-79
2021/06/22 03:04:58;;;;;;;57.75;6.78;;;;;;;23.20;99.11;100633.30;1814935;78;21079;-78
2021/06/22 03:07:24;;;;;;;49.25;5.65;;;;;;;23.22;97.80;100623.34;1814821;78;21054;-83
2021/06/22 03:09:50;;;;;;;55.70;6.70;;;;;;;23.23;98.18;100631.80;1814732;78;20972;-80
2021/06/22 03:12:16;;;;;;;58.70;6.20;;;;;;;23.23;97.96;100635.36;1814890;78;20920;-77
2021/06/22 03:14:41;;;;;;;43.80;5.92;;;;;;;23.26;98.50;100650.37;1814906;79;20917;-79
2021/06/22 03:17:07;;;;;;;46.90;5.47;;;;;;;23.27;98.64;100646.48;1814767;79;21079;-79
2021/06/22 03:19:33;;;;;;;56.63;6.62;;;;;;;23.28;97.17;100650.83;1814898;79;20948;-79
2021/06/22 03:21:59;;;;;;;61.77;5.97;;;;;;;23.30;97.90;100655.42;1814661;79;20964;-76
2021/06/22 03:24:25;;;;;;;59.33;5.85;;;;;;;23.32;96.39;100654.48;1814593;79;21492;-80
2021/06/22 03:26:51;;;;;;;76.40;7.30;;;;;;;23.34;95.47;100653.00;1814859;79;21023;-79
2021/06/22 03:29:19;;;;;;;63.75;6.78;;;;;;;23.38;96.43;100659.19;1792188;79;21530;-79
2021/06/22 03:31:45;;;;;;;73.67;7.35;;;;;;;23.42;95.50;100658.74;1814570;79;20961;-81
2021/06/22 03:34:11;;;;;;;68.35;6.50;;;;;;;23.44;94.73;100667.43;1814946;79;20956;-78
2021/06/22 03:36:36;;;;;;;52.58;6.05;;;;;;;23.42;94.61;100651.87;1814896;78;20937;-80
2021/06/22 03:39:04;;;;;;;51.90;6.67;;;;;;;23.40;95.32;100659.66;1814730;79;22081;-79
2021/06/22 03:41:32;;;;;;;60.98;6.42;;;;;;;23.37;95.59;100661.14;1814820;78;21876;-80
2021/06/22 03:43:58;;;;;;;56.15;5.45;;;;;;;23.40;95.73;100676.95;1814404;79;21000;-78
2021/06/22 03:46:24;;;;;;;55.30;6.80;;;;;;;23.41;94.18;100674.42;1814698;78;21018;-83
2021/06/22 03:48:50;;;;;;;65.45;6.00;;;;;;;23.48;95.30;100682.91;1814613;79;21363;-80
2021/06/22 03:51:16;;;;;;;70.92;6.33;;;;;;;23.60;95.41;100675.80;1814755;79;21614;-77
2021/06/22 03:53:42;;;;;;;57.67;6.78;;;;;;;23.77;96.72;100683.25;1814856;78;21485;-80
2021/06/22 03:56:11;;;;;;;57.73;6.10;;;;;;;23.97;94.67;100695.26;1814823;78;20938;-80
2021/06/22 03:58:38;;;;;;;57.13;5.60;;;;;;;24.09;94.24;100684.78;1813168;77;21589;-79
2021/06/22 04:01:04;;;;;;;59.95;5.62;;;;;;;24.14;94.86;100689.23;1814588;78;21007;-77
2021/06/22 04:03:31;;;;;;;70.52;7.58;;;;;;;24.19;94.61;100694.50;1806591;78;21464;-77
2021/06/22 04:05:57;;;;;;;77.62;6.87;;;;;;;24.28;93.01;100697.91;1803195;78;21361;-80
2021/06/22 04:08:23;;;;;;;63.85;7.55;;;;;;;24.25;91.10;100693.89;1774599;80;20955;-79
2021/06/22 04:10:48;;;;;;;66.15;6.00;;;;;;;24.16;92.32;100690.48;1794543;80;20923;-79
2021/06/22 04:13:15;;;;;;;51.85;6.28;;;;;;;24.13;92.00;100685.67;1774464;80;20858;-80
2021/06/22 04:15:40;;;;;;;74.87;6.15;;;;;;;24.09;92.57;100681.20;1794583;80;21036;-79
2021/06/22 04:18:10;;;;;;;70.60;5.60;;;;;;;24.06;94.17;100688.79;1795281;79;21877;-77
2021/06/22 04:20:37;;;;;;;57.05;7.80;;;;;;;23.93;92.71;100690.20;1796054;79;21085;-79
2021/06/22 04:23:05;;;;;;;59.85;6.55;;;;;;;23.85;93.11;100700.77;1796397;79;20989;-80
2021/06/22 04:25:32;;;;;;;69.25;6.33;;;;;;;23.87;93.09;100688.84;1796215;79;20966;-80
2021/06/22 04:28:03;;;;;;;53.17;5.83;;;;;;;23.98;93.53;100699.61;1796307;79;21012;-80
2021/06/22 04:30:32;;;;;;;56.58;6.72;;;;;;;24.12;94.09;100701.16;1776639;79;21124;-79
2021/06/22 04:32:58;;;;;;;51.68;5.87;;;;;;;24.30;93.74;100701.70;1796078;79;20989;-77
2021/06/22 04:35:27;;;;;;;61.13;5.92;;;;;;;24.44;93.61;100722.22;1796322;79;21019;-79
2021/06/22 04:37:52;;;;;;;56.30;6.20;;;;;;;24.51;92.39;100706.45;1795966;79;21464;-79
2021/06/22 04:40:21;;;;;;;60.92;7.12;;;;;;;24.52;94.13;100714.13;1796458;79;20955;-79
2021/06/22 04:42:49;;;;;;;66.67;6.22;;;;;;;24.56;93.49;100708.14;1796385;79;21312;-80
2021/06/22 04:45:16;;;;;;;55.10;6.80;;;;;;;24.69;93.84;100711.06;1796243;79;21011;-78
2021/06/22 04:47:42;;;;;;;74.58;7.35;;;;;;;24.74;91.84;100714.95;1796061;79;21016;-79
2021/06/22 04:50:09;;;;;;;72.58;7.92;;;;;;;24.80;92.30;100727.32;1796384;79;20932;-83
2021/06/22 04:52:36;;;;;;;73.97;8.53;;;;;;;25.07;93.80;100722.90;1797318;78;21004;-80
2021/06/22 04:55:12;;;;;;;82.97;7.65;;;;;;;25.59;87.30;100729.33;1809086;78;21127;-78
2021/06/22 04:57:35;;;;;;;66.90;7.78;;;;;;;26.10;86.92;100721.02;1816078;78;21507;-80
2021/06/22 05:00:00;;;;;;;69.50;8.45;;;;;;;26.69;85.57;100723.21;1830036;78;20849;-78
2021/06/22 05:02:26;;;;;;;63.48;6.62;;;;;;;27.07;77.30;100718.75;1807836;78;20830;-80
2021/06/22 05:04:53;;;;;;;70.85;7.97;;;;;;;27.31;73.61;100726.70;1831402;77;20893;-78
2021/06/22 05:07:18;;;;;;;78.75;8.18;;;;;;;27.62;75.33;100722.05;1831635;78;21053;-80
2021/06/22 05:09:45;;;;;;;64.30;7.08;;;;;;;27.95;70.77;100731.05;1831232;78;20861;-81
2021/06/22 05:12:12;;;;;;;79.27;7.62;;;;;;;28.22;69.58;100734.56;1831605;78;21070;-79
2021/06/22 05:14:38;;;;;;;73.85;7.45;;;;;;;28.47;69.52;100728.55;1831393;77;20969;-79
2021/06/22 05:17:04;;;;;;;61.30;8.00;;;;;;;28.72;66.47;100732.40;1831443;77;21124;-80
2021/06/22 05:19:31;;;;;;;66.35;7.42;;;;;;;28.95;66.04;100735.01;1831499;77;21471;-81
2021/06/22 05:21:57;;;;;;;71.12;8.18;;;;;;;28.91;62.20;100731.39;1830960;78;20999;-80
2021/06/22 05:24:22;;;;;;;56.68;8.98;;;;;;;28.92;62.58;100731.61;1831522;77;20952;-80
2021/06/22 05:26:49;;;;;;;70.72;8.60;;;;;;;29.09;61.77;100725.23;1831422;78;20904;-80
2021/06/22 05:29:14;;;;;;;77.35;8.05;;;;;;;29.24;62.32;100740.03;1831207;77;20973;-84
2021/06/22 05:31:40;;;;;;;72.12;7.35;;;;;;;29.48;60.92;100733.11;1831286;77;21677;-80
2021/06/22 05:34:06;;;;;;;79.90;8.33;;;;;;;29.70;59.22;100738.23;1831300;77;20837;-80
2021/06/22 05:36:32;;;;;;;72.85;7.83;;;;;;;29.85;56.96;100738.52;1817950;77;20881;-83
2021/06/22 05:38:58;;;;;;;60.30;7.28;;;;;;;29.89;56.77;100737.97;1802828;79;20865;-81
2021/06/22 05:41:28;;;;;;;70.90;7.58;;;;;;;30.10;57.53;100751.17;1804942;79;21459;-80
2021/06/22 05:43:54;;;;;;;60.33;7.65;;;;;;;30.43;55.98;100736.84;1803285;79;21882;-80
2021/06/22 05:46:22;;;;;;;79.90;8.45;;;;;;;30.68;54.39;100750.23;1804815;78;20990;-80
2021/06/22 05:48:48;;;;;;;61.85;7.70;;;;;;;30.65;52.57;100739.89;1798262;79;20937;-82
2021/06/22 05:51:14;;;;;;;73.67;8.48;;;;;;;30.61;52.25;100739.67;1809572;79;20976;-79
2021/06/22 05:53:43;;;;;;;69.77;8.50;;;;;;;30.63;52.64;100733.92;1798038;79;21070;-80
2021/06/22 05:56:18;;;;;;;57.65;8.10;;;;;;;31.02;52.32;100745.74;1809370;78;21123;-80
2021/06/22 05:58:50;;;;;;;64.47;7.90;;;;;;;31.36;51.40;100742.02;1762781;80;21509;-78
2021/06/22 06:01:17;;;;;;;67.57;7.10;;;;;;;31.63;51.70;100730.44;1700825;83;21052;-81
2021/06/22 06:03:43;;;;;;;62.27;7.95;;;;;;;32.05;51.12;100728.76;1660071;86;21086;-80
2021/06/22 06:06:20;;;;;;;56.63;7.80;;;;;;;32.16;46.85;100726.73;1652760;85;20916;-80
2021/06/22 06:08:50;;;;;;;75.25;8.78;;;;;;;32.16;46.85;100726.73;1649873;87;21169;-80
2021/06/22 06:11:16;;;;;;;67.97;8.13;;;;;;;32.10;46.35;100738.89;1551120;92;21137;-81
2021/06/22 06:13:42;;;;;;;63.05;8.15;;;;;;;31.92;47.03;100737.38;1551430;92;21066;-80
2021/06/22 06:16:08;;;;;;;61.60;7.95;;;;;;;31.94;46.83;100767.02;1513529;94;20954;-79
2021/06/22 06:18:34;;;;;;;70.80;8.70;;;;;;;31.85;46.12;100745.11;1513182;94;21187;-81
2021/06/22 06:21:01;;;;;;;65.08;8.05;;;;;;;32.02;46.50;100748.48;1513373;94;21222;-80
2021/06/22 06:23:31;;;;;;;55.98;7.97;;;;;;;32.37;47.42;100741.78;1521907;93;21665;-78
2021/06/22 06:25:56;;;;;;;72.70;8.05;;;;;;;32.78;45.82;100754.54;1536181;92;21070;-82
2021/06/22 06:28:29;;;;;;;75.35;8.28;;;;;;;32.91;45.19;100756.23;1539364;93;21115;-82
2021/06/22 06:30:50;;;;;;;58.42;8.85;;;;;;;33.06;43.86;100757.75;1553803;92;21471;-82
2021/06/22 06:33:16;;;;;;;54.18;7.90;;;;;;;32.80;43.58;100747.34;1559552;92;21119;-80
2021/06/22 06:35:42;;;;;;;67.97;7.83;;;;;;;32.70;44.29;100751.59;1559608;92;20988;-82
2021/06/22 06:38:09;;;;;;;51.05;7.75;;;;;;;32.76;44.80;100752.14;1559528;92;21112;-82
2021/06/22 06:40:35;;;;;;;52.45;7.22;;;;;;;32.97;43.82;100751.23;1559713;92;21056;-87
2021/06/22 06:43:03;;;;;;;64.25;7.58;;;;;;;33.36;43.89;100744.55;1691781;83;21030;-79
2021/06/22 06:45:30;;;;;;;63.75;7.97;;;;;;;33.62;43.73;100743.14;1726556;83;21970;-82
2021/06/22 06:47:57;;;;;;;64.62;8.05;;;;;;;34.08;42.47;100736.87;1750057;81;21487;-81
2021/06/22 06:50:23;;;;;;;62.03;7.58;;;;;;;34.21;41.10;100743.52;1756428;81;21212;-84
2021/06/22 06:52:49;;;;;;;77.22;9.70;;;;;;;34.31;40.61;100736.97;1756233;81;21063;-80
2021/06/22 06:55:28;;;;;;;67.47;7.83;;;;;;;34.47;39.47;100739.15;1756806;81;21514;-83
2021/06/22 06:58:02;;;;;;;53.87;7.67;;;;;;;34.34;38.99;100736.74;1755968;81;21029;-81
2021/06/22 07:00:31;;;;;;;52.45;7.72;;;;;;;34.23;39.12;100731.28;1751787;81;21003;-81
2021/06/22 07:02:57;;;;;;;70.12;8.90;;;;;;;34.31;41.04;100723.59;1748552;81;21038;-81
2021/06/22 07:05:24;;;;;;;58.05;7.40;;;;;;;34.61;39.53;100732.59;1748315;81;21061;-80
2021/06/22 07:07:51;;;;;;;57.62;7.90;;;;;;;34.62;38.58;100729.97;1802196;78;20983;-79
2021/06/22 07:10:19;;;;;;;46.15;7.00;;;;;;;34.80;39.30;100729.73;1792205;79;21085;-82
2021/06/22 07:12:46;;;;;;;65.35;7.90;;;;;;;35.09;38.17;100748.28;1814087;79;21055;-80
2021/06/22 07:15:14;;;;;;;52.08;7.22;;;;;;;34.87;37.51;100735.83;1792036;79;21441;-80
2021/06/22 07:17:40;;;;;;;65.25;8.25;;;;;;;35.01;37.25;100741.20;1814531;78;21483;-77
2021/06/22 07:20:12;;;;;;;50.12;6.70;;;;;;;34.90;37.50;100739.97;1814383;77;21042;-82
2021/06/22 07:22:38;;;;;;;49.03;7.00;;;;;;;35.10;38.19;100747.09;1755492;81;21059;-84
2021/06/22 07:25:05;;;;;;;40.92;6.17;;;;;;;35.26;37.81;100747.81;1749130;79;21011;-82
2021/06/22 07:27:32;;;;;;;42.43;5.87;;;;;;;35.20;38.04;100753.72;1727081;80;21007;-80
2021/06/22 07:29:58;;;;;;;48.25;5.72;;;;;;;35.30;37.55;100755.57;1726572;81;21248;-82
2021/06/22 07:32:24;;;;;;;49.90;6.78;;;;;;;35.48;37.53;100751.84;1745249;81;21611;-87
2021/06/22 07:34:50;;;;;;;50.12;6.15;;;;;;;35.58;36.88;100761.30;1746157;80;21159;-81
2021/06/22 07:37:17;;;;;;;45.98;5.35;;;;;;;35.52;36.75;100774.81;1764873;80;21031;-82
2021/06/22 07:39:43;;;;;;;51.65;5.83;;;;;;;35.57;36.77;100760.34;1725388;82;20952;-80
2021/06/22 07:42:09;;;;;;;39.13;5.55;;;;;;;35.76;36.53;100766.58;1659066;85;21013;-84
2021/06/22 07:44:35;;;;;;;35.88;5.28;;;;;;;35.67;36.73;100760.13;1659043;85;21046;-80
2021/06/22 07:47:02;;;;;;;41.35;5.12;;;;;;;35.79;36.09;100772.73;1677573;83;21160;-80
2021/06/22 07:49:29;;;;;;;39.88;5.60;;;;;;;35.67;35.77;100768.54;1661735;86;37344;-80
2021/06/22 07:51:55;;;;;;;51.15;5.25;;;;;;;35.67;35.94;100771.34;1662503;86;21063;-81
2021/06/22 07:54:21;;;;;;;44.38;5.75;;;;;;;35.72;35.81;100778.48;1662478;86;20913;-82
2021/06/22 07:56:46;;;;;;;36.20;4.95;;;;;;;36.02;34.23;100765.49;1662458;86;20945;-78
2021/06/22 07:59:12;;;;;;;33.05;5.22;;;;;;;35.79;34.57;100769.14;1662286;86;21834;-80
2021/06/22 08:01:39;;;;;;;33.65;5.70;;;;;;;35.78;35.22;100773.17;1643411;86;20999;-80
2021/06/22 08:04:04;;;;;;;42.55;4.53;;;;;;;35.73;35.03;100767.44;1643019;86;21388;-81
2021/06/22 08:06:31;;;;;;;34.60;6.05;;;;;;;35.88;34.04;100773.56;1643892;86;21056;-81
2021/06/22 08:08:58;;;;;;;40.75;5.30;;;;;;;35.79;35.76;100778.95;1642679;86;21068;-87
2021/06/22 08:11:24;;;;;;;43.75;4.90;;;;;;;36.04;35.59;100770.89;1643070;86;21524;-82
2021/06/22 08:13:50;;;;;;;33.35;4.87;;;;;;;36.21;35.94;100768.95;1642305;87;21080;-82
2021/06/22 08:16:16;;;;;;;35.08;4.72;;;;;;;36.43;34.44;100767.08;1642978;86;21008;-78
2021/06/22 08:18:42;;;;;;;37.30;5.37;;;;;;;36.41;35.88;100769.52;1656165;83;20870;-81
2021/06/22 08:21:08;;;;;;;32.98;4.40;;;;;;;36.43;34.64;100767.08;1711421;83;21029;-81
2021/06/22 08:23:34;;;;;;;30.45;4.58;;;;;;;36.16;35.55;100770.85;1711700;83;21912;-83
2021/06/22 08:26:01;;;;;;;43.17;5.17;;;;;;;36.23;35.58;100762.27;1711593;83;20878;-80
2021/06/22 08:28:27;;;;;;;26.30;4.40;;;;;;;36.47;33.29;100778.40;1711129;83;21032;-84
2021/06/22 08:30:53;;;;;;;32.75;4.00;;;;;;;36.41;35.13;100780.13;1711767;83;20976;-84
2021/06/22 08:33:19;;;;;;;33.78;4.35;;;;;;;36.45;32.91;100776.66;1711840;83;21224;-85
2021/06/22 08:35:45;;;;;;;24.75;4.10;;;;;;;36.18;33.79;100778.82;1715976;82;21150;-83
2021/06/22 08:38:13;;;;;;;28.50;4.08;;;;;;;36.43;34.57;100790.33;1741735;82;21677;-81
2021/06/22 08:40:43;;;;;;;27.90;4.05;;;;;;;36.28;33.37;100787.03;1741778;81;21049;-84
2021/06/22 08:43:12;;;;;;;23.80;4.55;;;;;;;36.31;33.90;100781.17;1742212;81;21045;-81
2021/06/22 08:45:41;;;;;;;22.20;3.90;;;;;;;36.44;34.50;100791.91;1741895;82;20989;-83
2021/06/22 08:48:09;;;;;;;27.07;3.10;;;;;;;36.51;32.72;100798.00;1748555;80;21964;-85
2021/06/22 08:50:43;;;;;;;24.02;3.75;;;;;;;36.65;32.34;100795.50;1754680;80;20996;-80
2021/06/22 08:53:10;;;;;;;21.02;3.52;;;;;;;36.56;32.46;100793.28;1681252;84;21657;-83
2021/06/22 08:55:36;;;;;;;26.50;3.67;;;;;;;36.45;32.32;100798.33;1695278;84;21118;-80
2021/06/22 08:58:11;;;;;;;18.75;3.17;;;;;;;36.27;33.02;100796.69;1695591;83;20907;-80
2021/06/22 09:00:43;;;;;;;24.18;3.52;;;;;;;36.33;32.49;100795.57;1697817;83;22152;-81
2021/06/22 09:03:13;;;;;;;22.15;3.45;;;;;;;36.57;32.09;100790.67;1701161;84;21123;-85
2021/06/22 09:05:48;;;;;;;15.13;2.45;;;;;;;36.46;31.53;100808.33;1703298;84;21059;-82
2021/06/22 09:08:25;;;;;;;27.25;3.65;;;;;;;36.07;31.14;100805.72;1770040;80;21106;-83
2021/06/22 09:10:57;;;;;;;18.55;3.05;;;;;;;36.05;32.49;100814.55;1736929;81;21071;-81
2021/06/22 09:13:25;;;;;;;26.25;4.03;;;;;;;36.05;32.68;100803.94;1732474;82;21103;-84
2021/06/22 09:15:54;;;;;;;18.55;3.65;;;;;;;36.16;31.98;100798.30;1735793;82;21075;-85
2021/06/22 09:18:37;;;;;;;16.52;3.05;;;;;;;36.31;32.90;100810.64;1736119;82;21626;-84
2021/06/22 09:21:13;;;;;;;17.05;2.75;;;;;;;36.25;32.26;100801.94;1640014;87;21610;-82
2021/06/22 09:23:43;;;;;;;15.90;2.70;;;;;;;35.96;32.28;100810.70;1640241;87;21133;-82
2021/06/22 09:26:13;;;;;;;15.93;3.17;;;;;;;35.94;33.29;100800.71;1640536;87;21091;-95
2021/06/22 09:28:40;;;;;;;14.63;3.30;;;;;;;36.24;34.04;100804.57;1640480;87;21031;-90
2021/06/22 09:31:11;;;;;;;13.13;2.45;;;;;;;36.44;32.64;100808.75;1640313;87;21030;-91
2021/06/22 09:33:50;;;;;;;8.35;2.30;;;;;;;36.22;32.17;100809.81;1568109;90;21082;-91
2021/06/22 09:36:25;;;;;;;11.73;2.55;;;;;;;36.11;33.41;100803.62;1600214;88;21043;-84
2021/06/22 09:39:07;;;;;;;19.23;3.90;;;;;;;35.90;33.49;100821.62;1568274;90;21746;-89
2021/06/22 09:41:42;;;;;;;17.35;2.95;;;;;;;35.76;33.38;100818.46;1592309;90;21138;-87
2021/06/22 09:44:11;;;;;;;15.25;2.60;;;;;;;35.38;33.67;100818.67;1592323;90;21062;-90
2021/06/22 09:46:44;;;;;;;18.73;2.52;;;;;;;35.47;34.67;100816.15;1592435;88;21051;-84
2021/06/22 09:49:19;;;;;;;13.68;2.37;;;;;;;35.26;33.18;100815.86;1560862;90;21114;-80
2021/06/22 09:52:04;;;;;;;8.98;2.20;;;;;;;35.02;34.50;100815.00;1537012;92;21417;-81
2021/06/22 09:54:33;;;;;;;13.80;2.42;;;;;;;34.84;35.21;100814.48;1457105;97;21115;-82
2021/06/22 09:57:13;;;;;;;15.23;2.05;;;;;;;34.78;33.17;100811.36;1415195;99;21108;-85
2021/06/22 09:59:56;;;;;;;11.80;2.20;;;;;;;34.61;34.13;100812.39;1435664;99;21830;-81
2021/06/22 10:02:24;;;;;;;18.92;2.50;;;;;;;34.54;34.67;100812.46;1437466;99;21302;-78
2021/06/22 10:04:55;;;;;;;16.05;2.47;;;;;;;34.27;34.78;100811.79;1437673;99;21357;-81
2021/06/22 10:07:23;;;;;;;15.15;2.67;;;;;;;34.21;35.67;100808.45;1437676;99;21187;-80
2021/06/22 10:10:01;;;;;;;14.05;2.75;;;;;;;34.18;35.69;100810.68;1437639;99;21156;-81
2021/06/22 10:12:29;;;;;;;20.00;2.70;;;;;;;34.21;35.63;100805.64;1437453;99;21216;-83
2021/06/22 10:17:30;;;;;;;26.40;2.67;;;;;;;33.93;34.63;100798.53;1437527;99;21107;-80
2021/06/22 10:19:59;;;;;;;15.10;2.35;;;;;;;33.84;37.02;100791.84;1434384;98;21295;-82
2021/06/22 10:22:28;;;;;;;13.15;2.62;;;;;;;33.82;35.93;100797.05;1433821;100;21158;-81
2021/06/22 10:24:57;;;;;;;19.73;2.27;;;;;;;33.84;36.69;100801.63;1432362;98;21063;-78
2021/06/22 10:27:24;;;;;;;11.10;2.42;;;;;;;33.66;35.54;100807.40;1414521;101;21146;-80
2021/06/22 10:29:53;;;;;;;15.90;2.33;;;;;;;33.65;36.44;100817.80;1447776;95;21166;-84
2021/06/22 10:32:23;;;;;;;9.98;2.02;;;;;;;33.61;35.49;100811.42;1481732;93;21120;-82
2021/06/22 10:34:53;;;;;;;7.40;2.05;;;;;;;33.57;36.76;100810.67;1530609;93;21149;-81
2021/06/22 10:37:32;;;;;;;16.37;1.98;;;;;;;33.58;37.71;100800.28;1477826;95;21563;-80
2021/06/22 10:40:23;;;;;;;8.55;2.12;;;;;;;33.69;37.75;100797.58;1482027;96;21164;-83
2021/06/22 10:42:59;;;;;;;18.17;2.00;;;;;;;33.65;36.87;100800.20;1483458;96;21575;-79
2021/06/22 10:45:26;;;;;;;8.88;2.33;;;;;;;33.66;37.26;100797.01;1483892;96;21248;-83
2021/06/22 10:47:59;;;;;;;9.98;2.27;;;;;;;33.61;36.96;100798.84;1466050;96;21138;-80
2021/06/22 10:50:31;;;;;;;17.17;2.60;;;;;;;33.61;37.23;100791.86;1502646;90;21076;-82
2021/06/22 10:53:03;;;;;;;14.70;2.50;;;;;;;33.72;37.85;100786.78;1610990;84;21609;-81
2021/06/22 10:55:37;;;;;;;8.25;2.50;;;;;;;33.91;37.96;100796.77;1664414;85;21266;-81
2021/06/22 10:58:08;;;;;;;11.55;2.08;;;;;;;33.90;38.36;100790.97;1687392;85;21018;-84
2021/06/22 11:00:43;;;;;;;6.75;2.05;;;;;;;34.05;37.95;100786.66;1683383;85;21110;-83
2021/06/22 11:03:31;;;;;;;11.78;2.20;;;;;;;34.10;38.51;100779.21;1658241;85;21121;-82
2021/06/22 11:06:17;;;;;;;11.28;2.42;;;;;;;34.05;37.37;100782.46;1655315;86;21090;-82
2021/06/22 11:08:44;;;;;;;8.30;1.90;;;;;;;34.15;38.68;100792.72;1658599;85;21259;-78
2021/06/22 11:11:15;;;;;;;12.47;2.20;;;;;;;34.33;39.82;100792.53;1658294;86;21097;-82
2021/06/22 11:13:55;;;;;;;9.60;2.12;;;;;;;34.29;39.30;100787.57;1669934;83;21581;-81
2021/06/22 11:16:29;;;;;;;12.73;2.25;;;;;;;34.27;39.68;100785.20;1713550;83;21030;-82
2021/06/22 11:19:07;;;;;;;13.72;2.20;;;;;;;34.41;39.33;100789.02;1713917;82;21096;-83
2021/06/22 11:21:51;;;;;;;12.63;2.00;;;;;;;34.32;40.05;100784.72;1713402;83;22493;-81
2021/06/22 11:24:23;;;;;;;13.88;2.22;;;;;;;34.27;38.27;100781.59;1713341;83;21064;-82